createdAt,value
2022-08-31T00:00:00.750Z,59.86
2022-08-31T00:02:46.125Z,59.82
2022-08-31T00:05:12.716Z,59.22
2022-08-31T00:07:40.346Z,59.36
2022-08-31T00:10:14.841Z,59.65
2022-08-31T00:12:47.158Z,59.78
2022-08-31T00:15:20.454Z,60.64
2022-08-31T00:17:53.256Z,61.14
2022-08-31T00:20:33.637Z,61.24
2022-08-31T00:23:06.134Z,61.00
2022-08-31T00:25:34.306Z,61.36
2022-08-31T00:28:03.023Z,61.51
2022-08-31T00:30:31.286Z,61.16
2022-08-31T00:32:58.791Z,60.73
2022-08-31T00:35:27.848Z,62.05
2022-08-31T00:37:57.114Z,61.14
2022-08-31T00:40:24.581Z,61.56
2022-08-31T00:42:51.678Z,63.82
2022-08-31T00:45:18.735Z,62.10
2022-08-31T00:47:45.360Z,61.86
2022-08-31T00:50:17.617Z,62.34
2022-08-31T00:52:50.262Z,63.26
2022-08-31T00:55:29.186Z,62.21
2022-08-31T00:58:00.146Z,62.01
2022-08-31T01:00:28.355Z,63.02
2022-08-31T01:02:57.326Z,63.11
2022-08-31T01:05:27.730Z,63.70
2022-08-31T01:07:56.963Z,63.30
2022-08-31T01:10:27.393Z,63.71
2022-08-31T01:12:56.765Z,63.07
2022-08-31T01:15:26.708Z,63.26
2022-08-31T01:17:57.026Z,62.75
2022-08-31T01:20:36.369Z,62.81
2022-08-31T01:23:34.224Z,63.90
2022-08-31T01:26:03.444Z,63.05
2022-08-31T01:28:30.263Z,63.46
2022-08-31T01:31:02.969Z,63.55
2022-08-31T01:33:30.393Z,63.05
2022-08-31T01:35:57.880Z,63.52
2022-08-31T01:38:26.980Z,63.80
2022-08-31T01:40:57.690Z,63.57
2022-08-31T01:43:25.260Z,63.61
2022-08-31T01:45:52.456Z,63.66
2022-08-31T01:48:19.665Z,63.70
2022-08-31T01:50:46.911Z,63.45
2022-08-31T01:53:13.804Z,63.39
2022-08-31T01:55:40.740Z,63.89
2022-08-31T01:58:08.031Z,63.87
2022-08-31T02:00:35.440Z,63.83
2022-08-31T02:03:03.593Z,64.20
2022-08-31T02:05:31.325Z,63.85
2022-08-31T02:07:59.400Z,63.96
2022-08-31T02:10:26.263Z,64.16
2022-08-31T02:12:52.954Z,63.81
2022-08-31T02:15:20.004Z,64.26
2022-08-31T02:17:47.078Z,64.25
2022-08-31T02:20:20.480Z,63.80
2022-08-31T02:22:48.675Z,63.95
2022-08-31T02:25:17.647Z,64.27
2022-08-31T02:27:44.504Z,64.27
2022-08-31T02:30:14.924Z,64.26
2022-08-31T02:32:41.572Z,64.22
2022-08-31T02:35:08.661Z,64.72
2022-08-31T02:37:36.312Z,64.68
2022-08-31T02:40:06.779Z,64.60
2022-08-31T02:42:52.140Z,64.63
2022-08-31T02:45:20.268Z,64.61
2022-08-31T02:47:46.773Z,64.68
2022-08-31T02:50:13.377Z,64.97
2022-08-31T02:52:39.912Z,64.90
2022-08-31T02:55:06.790Z,64.55
2022-08-31T02:57:33.340Z,65.40
2022-08-31T02:59:59.930Z,65.70
2022-08-31T03:02:31.758Z,65.73
2022-08-31T03:05:02.793Z,65.46
2022-08-31T03:07:29.436Z,65.40
2022-08-31T03:09:56.983Z,65.58
2022-08-31T03:12:23.489Z,65.67
2022-08-31T03:14:50.043Z,65.78
2022-08-31T03:17:16.571Z,65.98
2022-08-31T03:19:43.170Z,65.66
2022-08-31T03:22:10.477Z,65.94
2022-08-31T03:24:37.192Z,66.35
2022-08-31T03:27:03.790Z,66.38
2022-08-31T03:29:30.391Z,66.18
2022-08-31T03:31:56.998Z,66.53
2022-08-31T03:34:23.557Z,66.48
2022-08-31T03:36:52.567Z,66.23
2022-08-31T03:39:20.438Z,66.35
2022-08-31T03:41:49.710Z,66.67
2022-08-31T03:44:16.781Z,66.29
2022-08-31T03:46:45.231Z,66.64
2022-08-31T03:49:12.418Z,66.61
2022-08-31T03:51:39.076Z,66.58
2022-08-31T03:54:05.647Z,66.50
2022-08-31T03:56:32.327Z,66.60
2022-08-31T03:58:58.825Z,66.54
2022-08-31T04:01:25.427Z,66.47
2022-08-31T04:03:52.156Z,66.50
2022-08-31T04:06:20.111Z,66.55
2022-08-31T04:08:46.738Z,66.70
2022-08-31T04:11:17.066Z,66.56
2022-08-31T04:13:46.720Z,66.61
2022-08-31T04:16:16.654Z,66.60
2022-08-31T04:18:45.471Z,66.82
2022-08-31T04:21:21.142Z,67.34
2022-08-31T04:23:49.075Z,67.23
2022-08-31T04:26:37.070Z,67.06
2022-08-31T04:29:07.651Z,67.10
2022-08-31T04:31:37.423Z,67.37
2022-08-31T04:34:05.233Z,67.24
2022-08-31T04:36:31.975Z,67.21
2022-08-31T04:39:01.286Z,67.09
2022-08-31T04:41:33.045Z,67.39
2022-08-31T04:44:01.310Z,67.33
2022-08-31T04:46:31.707Z,67.28
2022-08-31T04:48:59.004Z,67.25
2022-08-31T04:51:35.559Z,67.22
2022-08-31T04:54:04.881Z,67.36
2022-08-31T04:56:35.855Z,67.54
2022-08-31T04:59:06.221Z,67.14
2022-08-31T05:01:42.732Z,67.45
2022-08-31T05:04:14.451Z,67.42
2022-08-31T05:06:43.257Z,67.13
2022-08-31T05:09:14.750Z,67.11
2022-08-31T05:11:44.191Z,66.85
2022-08-31T05:14:11.008Z,67.03
2022-08-31T05:16:42.208Z,67.01
2022-08-31T05:19:09.555Z,66.83
2022-08-31T05:21:44.476Z,66.85
2022-08-31T05:24:22.747Z,66.61
2022-08-31T05:26:52.601Z,66.54
2022-08-31T05:29:35.623Z,66.80
2022-08-31T05:32:04.866Z,66.55
2022-08-31T05:34:32.075Z,66.47
2022-08-31T05:37:01.398Z,66.26
2022-08-31T05:39:30.902Z,66.40
2022-08-31T05:41:57.552Z,66.19
2022-08-31T05:44:27.649Z,65.96
2022-08-31T05:47:03.418Z,65.91
2022-08-31T05:49:32.930Z,65.97
2022-08-31T05:52:03.635Z,65.67
2022-08-31T05:54:34.505Z,65.49
2022-08-31T05:57:01.911Z,65.33
2022-08-31T05:59:31.144Z,65.08
2022-08-31T06:01:58.816Z,64.87
2022-08-31T06:04:25.994Z,64.77
2022-08-31T06:06:52.612Z,64.74
2022-08-31T06:09:19.498Z,64.69
2022-08-31T06:11:47.080Z,64.74
2022-08-31T06:14:13.895Z,64.45
2022-08-31T06:16:43.738Z,63.99
2022-08-31T06:19:13.821Z,63.97
2022-08-31T06:21:50.043Z,63.71
2022-08-31T06:24:18.387Z,63.52
2022-08-31T06:26:57.313Z,63.65
2022-08-31T06:29:25.417Z,63.30
2022-08-31T06:31:52.243Z,63.51
2022-08-31T06:34:20.208Z,63.42
2022-08-31T06:36:48.268Z,63.42
2022-08-31T06:39:16.037Z,62.87
2022-08-31T06:41:42.669Z,62.62
2022-08-31T06:44:12.413Z,62.52
2022-08-31T06:46:40.422Z,62.14
2022-08-31T06:49:08.957Z,61.86
2022-08-31T06:51:37.938Z,61.54
2022-08-31T06:54:28.454Z,60.82
2022-08-31T06:56:58.443Z,60.97
2022-08-31T06:59:28.445Z,60.76
2022-08-31T07:01:59.343Z,60.70
2022-08-31T07:04:27.024Z,60.52
2022-08-31T07:06:55.018Z,60.70
2022-08-31T07:09:21.625Z,60.60
2022-08-31T07:11:52.534Z,60.04
2022-08-31T07:14:24.657Z,60.51
2022-08-31T07:16:53.440Z,60.27
2022-08-31T07:19:21.924Z,59.75
2022-08-31T07:21:55.306Z,59.79
2022-08-31T07:24:30.261Z,59.60
2022-08-31T07:27:08.661Z,59.47
2022-08-31T07:29:40.606Z,59.07
2022-08-31T07:32:09.187Z,59.13
2022-08-31T07:34:36.275Z,59.02
2022-08-31T07:37:23.046Z,58.69
2022-08-31T07:40:08.942Z,58.49
2022-08-31T07:42:46.718Z,58.40
2022-08-31T07:45:23.220Z,58.20
2022-08-31T07:47:55.948Z,58.01
2022-08-31T07:50:23.856Z,57.96
2022-08-31T07:52:54.569Z,58.02
2022-08-31T07:55:23.653Z,57.58
2022-08-31T07:57:53.472Z,57.58
2022-08-31T08:00:24.954Z,57.50
2022-08-31T08:02:53.085Z,57.02
2022-08-31T08:05:27.565Z,56.75
2022-08-31T08:08:07.293Z,56.06
2022-08-31T08:10:40.930Z,55.84
2022-08-31T08:13:08.886Z,55.82
2022-08-31T08:15:37.306Z,55.04
2022-08-31T08:18:06.872Z,54.65
2022-08-31T08:20:37.920Z,55.25
2022-08-31T08:23:13.960Z,54.09
2022-08-31T08:26:07.025Z,54.13
2022-08-31T08:28:39.711Z,53.80
2022-08-31T08:31:13.766Z,53.46
2022-08-31T08:33:40.306Z,53.68
2022-08-31T08:36:08.259Z,53.30
2022-08-31T08:38:38.959Z,52.93
2022-08-31T08:41:11.665Z,52.35
2022-08-31T08:43:43.754Z,52.09
2022-08-31T08:46:33.906Z,52.62
2022-08-31T08:49:31.165Z,51.72
2022-08-31T08:52:03.281Z,52.14
2022-08-31T08:54:34.565Z,51.46
2022-08-31T08:57:14.135Z,50.93
2022-08-31T08:59:45.778Z,51.03
2022-08-31T09:02:17.266Z,50.96
2022-08-31T09:05:22.355Z,50.95
2022-08-31T09:08:10.280Z,50.41
2022-08-31T09:10:42.749Z,50.34
2022-08-31T09:13:18.335Z,49.70
2022-08-31T09:16:04.527Z,49.97
2022-08-31T09:18:41.276Z,49.55
2022-08-31T09:21:24.749Z,48.95
2022-08-31T09:24:09.013Z,49.49
2022-08-31T09:27:20.849Z,48.89
2022-08-31T09:29:56.956Z,48.31
2022-08-31T09:32:27.015Z,47.97
2022-08-31T09:34:55.339Z,48.36
2022-08-31T09:37:26.088Z,48.17
2022-08-31T09:39:54.480Z,47.31
2022-08-31T09:42:32.260Z,47.36
2022-08-31T09:45:07.795Z,46.87
2022-08-31T09:47:54.211Z,45.70
2022-08-31T09:51:00.457Z,45.93
2022-08-31T09:53:46.482Z,45.71
2022-08-31T09:56:22.807Z,45.76
2022-08-31T09:58:53.302Z,44.55
2022-08-31T10:01:44.481Z,44.48
2022-08-31T10:04:17.233Z,44.62
2022-08-31T10:07:11.554Z,44.35
2022-08-31T10:10:06.395Z,44.20
2022-08-31T10:12:57.923Z,44.37
2022-08-31T10:15:54.356Z,42.49
2022-08-31T10:18:44.934Z,41.70
2022-08-31T10:21:21.183Z,41.73
2022-08-31T10:24:34.696Z,41.17
2022-08-31T10:27:31.463Z,41.36
2022-08-31T10:30:03.342Z,42.12
2022-08-31T10:32:44.229Z,42.39
2022-08-31T10:35:22.177Z,42.08
2022-08-31T10:38:10.271Z,42.53
2022-08-31T10:41:03.083Z,41.66
2022-08-31T10:44:17.951Z,41.28
2022-08-31T10:46:45.544Z,41.54
2022-08-31T10:49:12.248Z,41.06
2022-08-31T10:52:01.721Z,40.64
2022-08-31T10:54:51.546Z,40.36
2022-08-31T10:57:31.991Z,40.61
2022-08-31T11:00:41.150Z,40.76
2022-08-31T11:03:15.750Z,40.60
2022-08-31T11:05:52.194Z,41.53
2022-08-31T11:08:35.776Z,41.01
2022-08-31T11:11:09.083Z,41.36
2022-08-31T11:13:54.039Z,41.40
2022-08-31T11:16:33.093Z,41.20
2022-08-31T11:19:50.950Z,41.62
2022-08-31T11:23:02.142Z,40.74
2022-08-31T11:25:47.421Z,40.81
2022-08-31T11:28:41.491Z,41.20
2022-08-31T11:31:22.514Z,41.01
2022-08-31T11:34:14.986Z,41.11
2022-08-31T11:36:48.817Z,40.85
2022-08-31T11:39:22.715Z,40.64
2022-08-31T11:41:54.104Z,40.79
2022-08-31T11:44:33.190Z,41.24
2022-08-31T11:47:06.883Z,40.77
2022-08-31T11:49:46.337Z,40.76
2022-08-31T11:52:44.823Z,40.78
2022-08-31T11:55:21.145Z,40.80
2022-08-31T11:58:11.779Z,41.33
2022-08-31T12:01:03.707Z,40.82
2022-08-31T12:03:39.233Z,40.78
2022-08-31T12:06:10.354Z,42.11
2022-08-31T12:08:52.281Z,42.51
2022-08-31T12:11:47.659Z,42.70
2022-08-31T12:14:24.458Z,43.28
2022-08-31T12:17:23.867Z,43.34
2022-08-31T12:20:03.909Z,43.50
2022-08-31T12:22:55.196Z,43.59
2022-08-31T12:25:58.354Z,43.95
2022-08-31T12:28:58.975Z,44.05
2022-08-31T12:31:35.922Z,43.71
2022-08-31T12:34:23.670Z,43.68
2022-08-31T12:36:57.625Z,44.50
2022-08-31T12:39:30.291Z,44.45
2022-08-31T12:42:48.155Z,44.41
2022-08-31T12:45:15.940Z,44.59
2022-08-31T12:48:34.010Z,44.24
2022-08-31T12:51:29.105Z,44.26
2022-08-31T12:54:23.071Z,44.67
2022-08-31T12:57:34.620Z,44.39
2022-08-31T13:00:08.845Z,44.46
2022-08-31T13:02:46.037Z,44.48
2022-08-31T13:05:38.528Z,44.64
2022-08-31T13:08:28.844Z,44.49
2022-08-31T13:10:55.593Z,44.57
2022-08-31T13:13:30.673Z,44.57
2022-08-31T13:16:07.968Z,44.22
2022-08-31T13:19:06.804Z,44.24
2022-08-31T13:21:37.361Z,44.50
2022-08-31T13:24:28.747Z,44.56
2022-08-31T13:27:36.574Z,44.66
2022-08-31T13:30:19.347Z,44.59
2022-08-31T13:32:50.443Z,44.04
2022-08-31T13:35:21.246Z,43.80
2022-08-31T13:38:05.395Z,43.61
2022-08-31T13:40:53.002Z,43.51
2022-08-31T13:43:28.892Z,43.84
2022-08-31T13:46:01.097Z,43.97
2022-08-31T13:48:40.770Z,43.70
2022-08-31T13:51:19.927Z,43.73
2022-08-31T13:54:10.787Z,43.34
2022-08-31T13:56:57.007Z,44.30
2022-08-31T13:59:34.598Z,44.13
2022-08-31T14:02:18.782Z,44.39
2022-08-31T14:05:00.531Z,44.73
2022-08-31T14:07:42.376Z,44.24
2022-08-31T14:10:21.381Z,44.45
2022-08-31T14:13:14.068Z,44.74
2022-08-31T14:15:55.192Z,44.00
2022-08-31T14:18:41.267Z,43.90
2022-08-31T14:21:20.614Z,44.02
2022-08-31T14:24:02.773Z,43.85
2022-08-31T14:26:41.910Z,43.71
2022-08-31T14:29:14.813Z,44.56
2022-08-31T14:31:52.797Z,44.42
2022-08-31T14:34:25.585Z,44.98
2022-08-31T14:37:22.677Z,45.21
2022-08-31T14:46:45.481Z,44.44
2022-08-31T14:49:39.442Z,44.35
2022-08-31T14:52:21.485Z,44.79
2022-08-31T14:54:48.150Z,44.97
2022-08-31T14:57:40.633Z,45.12
2022-08-31T15:00:13.421Z,45.05
2022-08-31T15:02:43.877Z,44.42
2022-08-31T15:05:26.179Z,44.72
2022-08-31T15:08:56.447Z,44.99
2022-08-31T15:11:29.798Z,44.81
2022-08-31T15:18:14.379Z,45.20
2022-08-31T15:21:05.474Z,45.23
2022-08-31T15:27:03.470Z,45.27
2022-08-31T15:36:17.730Z,45.30
2022-08-31T15:39:17.043Z,45.66
2022-08-31T15:45:58.401Z,46.21
2022-08-31T15:48:41.987Z,46.52
2022-08-31T15:51:22.749Z,46.94
2022-08-31T15:54:11.706Z,47.11
2022-08-31T15:56:41.027Z,46.93
2022-08-31T15:59:10.151Z,47.40
2022-08-31T16:02:06.382Z,47.76
2022-08-31T16:05:02.385Z,47.52
2022-08-31T16:15:59.983Z,48.50
2022-08-31T16:18:26.846Z,48.89
2022-08-31T16:20:58.684Z,49.10
2022-08-31T16:23:33.136Z,49.75
2022-08-31T16:26:05.347Z,49.90
2022-08-31T16:28:34.026Z,50.17
2022-08-31T16:31:00.889Z,50.13
2022-08-31T16:33:30.713Z,50.54
2022-08-31T16:36:01.006Z,50.29
2022-08-31T16:38:33.254Z,50.75
2022-08-31T16:41:17.158Z,50.59
2022-08-31T16:44:36.604Z,50.81
2022-08-31T16:47:27.503Z,50.57
2022-08-31T16:50:26.525Z,50.76
2022-08-31T16:52:59.930Z,50.50
2022-08-31T16:55:57.910Z,50.81
2022-08-31T16:58:50.131Z,51.12
2022-08-31T17:01:22.151Z,50.75
2022-08-31T17:03:57.607Z,51.14
2022-08-31T17:06:31.286Z,51.55
2022-08-31T17:09:01.879Z,51.44
2022-08-31T17:11:32.346Z,51.32
2022-08-31T17:14:03.687Z,51.54
2022-08-31T17:16:36.051Z,51.29
2022-08-31T17:19:13.101Z,52.11
2022-08-31T17:21:53.106Z,51.95
2022-08-31T17:24:28.542Z,52.19
2022-08-31T17:27:01.418Z,52.72
2022-08-31T17:29:43.423Z,52.86
2022-08-31T17:32:15.697Z,53.60
2022-08-31T17:34:43.306Z,53.51
2022-08-31T17:37:41.216Z,53.81
2022-08-31T17:40:14.256Z,53.81
2022-08-31T17:42:49.608Z,54.00
2022-08-31T17:45:17.688Z,54.47
2022-08-31T17:47:44.597Z,53.89
2022-08-31T17:50:17.977Z,54.16
2022-08-31T17:52:47.562Z,54.38
2022-08-31T17:55:14.898Z,54.58
2022-08-31T17:57:44.059Z,54.69
2022-08-31T18:00:14.646Z,54.72
2022-08-31T18:02:46.249Z,54.47
2022-08-31T18:05:16.453Z,54.66
2022-08-31T18:07:51.133Z,54.77
2022-08-31T18:10:18.838Z,55.48
2022-08-31T18:12:46.579Z,55.17
2022-08-31T18:15:14.615Z,55.39
2022-08-31T18:17:43.314Z,55.47
2022-08-31T18:20:18.069Z,55.62
2022-08-31T18:22:50.105Z,55.81
2022-08-31T18:25:45.965Z,55.86
2022-08-31T18:28:14.086Z,56.01
2022-08-31T18:30:46.636Z,56.38
2022-08-31T18:33:22.981Z,56.55
2022-08-31T18:35:52.078Z,56.63
2022-08-31T18:38:19.084Z,56.68
2022-08-31T18:41:07.636Z,56.58
2022-08-31T18:44:00.238Z,56.74
2022-08-31T18:47:24.491Z,57.11
2022-08-31T18:50:03.503Z,56.83
2022-08-31T18:53:08.122Z,57.77
2022-08-31T18:58:27.914Z,57.40
2022-08-31T19:05:39.988Z,57.52
2022-08-31T19:08:58.089Z,57.80
2022-08-31T19:11:28.407Z,57.49
2022-08-31T19:13:56.320Z,58.00
2022-08-31T19:16:28.965Z,58.03
2022-08-31T19:19:01.463Z,58.74
2022-08-31T19:21:40.099Z,58.64
2022-08-31T19:24:22.231Z,58.63
2022-08-31T19:26:59.975Z,58.67
2022-08-31T19:29:36.291Z,58.58
2022-08-31T19:32:05.272Z,58.74
2022-08-31T19:34:35.692Z,58.80
2022-08-31T19:37:06.412Z,58.81
2022-08-31T19:39:37.209Z,58.96
2022-08-31T19:42:11.174Z,58.84
2022-08-31T19:47:32.187Z,59.12
2022-08-31T19:49:59.230Z,59.11
2022-08-31T19:52:28.834Z,59.43
2022-08-31T19:54:55.892Z,59.28
2022-08-31T19:57:25.295Z,59.84
2022-08-31T19:59:55.097Z,59.75
2022-08-31T20:02:27.434Z,60.41
2022-08-31T20:04:54.412Z,59.97
2022-08-31T20:07:23.708Z,59.97
2022-08-31T20:09:52.939Z,60.10
2022-08-31T20:12:50.479Z,60.19
2022-08-31T20:15:21.913Z,60.28
2022-08-31T20:17:50.483Z,60.34
2022-08-31T20:20:17.427Z,60.26
2022-08-31T20:22:59.262Z,60.25
2022-08-31T20:25:27.020Z,60.62
2022-08-31T20:27:59.462Z,60.53
2022-08-31T20:30:32.333Z,60.33
2022-08-31T20:32:59.410Z,60.26
2022-08-31T20:35:38.355Z,60.11
2022-08-31T20:38:06.295Z,59.86
2022-08-31T20:40:39.339Z,59.94
2022-08-31T20:43:13.297Z,59.82
2022-08-31T20:45:43.306Z,59.77
2022-08-31T20:48:29.555Z,59.49
2022-08-31T20:50:57.266Z,59.79
2022-08-31T20:53:42.303Z,59.64
2022-08-31T20:56:17.264Z,59.38
2022-08-31T20:58:46.726Z,59.30
2022-08-31T21:01:17.966Z,59.63
2022-08-31T21:03:45.038Z,59.45
2022-08-31T21:06:18.568Z,59.59
2022-08-31T21:08:46.207Z,59.75
2022-08-31T21:11:23.053Z,59.51
2022-08-31T21:13:56.763Z,59.53
2022-08-31T21:16:25.296Z,59.59
2022-08-31T21:18:52.627Z,59.75
2022-08-31T21:21:19.502Z,59.88
2022-08-31T21:23:47.749Z,60.01
2022-08-31T21:26:27.183Z,60.33
2022-08-31T21:28:56.833Z,60.09
2022-08-31T21:31:29.584Z,60.14
2022-08-31T21:34:03.095Z,59.92
2022-08-31T21:36:33.787Z,60.35
2022-08-31T21:39:05.173Z,60.34
2022-08-31T21:41:37.577Z,60.68
2022-08-31T21:44:06.929Z,60.54
2022-08-31T21:46:36.007Z,60.72
2022-08-31T21:49:10.388Z,61.47
2022-08-31T21:51:48.775Z,60.77
2022-08-31T21:54:19.205Z,61.62
2022-08-31T21:56:56.077Z,61.06
2022-08-31T21:59:27.039Z,61.34
2022-08-31T22:02:00.559Z,61.22
2022-08-31T22:04:35.299Z,61.14
2022-08-31T22:07:09.065Z,61.53
2022-08-31T22:09:38.258Z,61.30
2022-08-31T22:12:18.344Z,61.43
2022-08-31T22:14:45.575Z,61.18
2022-08-31T22:17:18.980Z,60.88
2022-08-31T22:19:50.135Z,61.10
2022-08-31T22:22:35.183Z,61.26
2022-08-31T22:25:03.449Z,61.26
2022-08-31T22:27:35.187Z,61.31
2022-08-31T22:30:05.880Z,61.69
2022-08-31T22:32:39.353Z,61.22
2022-08-31T22:35:09.846Z,61.82
2022-08-31T22:37:41.061Z,61.71
2022-08-31T22:40:18.896Z,61.70
2022-08-31T22:43:37.710Z,61.65
2022-08-31T22:46:05.063Z,61.95
2022-08-31T22:48:34.479Z,61.86
2022-08-31T22:51:10.799Z,62.25
2022-08-31T22:53:39.481Z,62.26
2022-08-31T22:56:29.228Z,62.33
2022-08-31T22:59:04.101Z,62.19
2022-08-31T23:01:40.920Z,62.37
2022-08-31T23:04:16.785Z,62.63
2022-08-31T23:06:47.472Z,62.74
2022-08-31T23:09:17.759Z,62.77
2022-08-31T23:11:44.314Z,62.82
2022-08-31T23:14:19.465Z,63.08
2022-08-31T23:17:02.619Z,62.93
2022-08-31T23:19:37.422Z,62.63
2022-08-31T23:22:22.039Z,63.16
2022-08-31T23:24:51.875Z,62.91
2022-08-31T23:27:25.709Z,63.21
2022-08-31T23:29:58.755Z,62.98
2022-08-31T23:32:30.409Z,63.13
2022-08-31T23:34:58.455Z,63.03
2022-08-31T23:37:29.029Z,63.40
2022-08-31T23:39:59.549Z,63.42
2022-08-31T23:42:29.590Z,63.76
2022-08-31T23:45:01.728Z,63.70
2022-08-31T23:47:31.141Z,63.75
2022-08-31T23:49:59.518Z,63.87
2022-08-31T23:52:32.205Z,64.13
2022-08-31T23:54:59.644Z,64.41
2022-08-31T23:57:32.690Z,64.05
